Stations météo

réclame
Mon MeteoGroup
Aix en Provence, France (7654): Température de l'air & dewpoint: 08.08.2018 23:00:00 - 14.08.2018 23:00:00 (CEST)Aix en Provence, France (7654): Vitesse du vent & gusts: 08.08.2018 23:00:00 - 14.08.2018 23:00:00 (CEST)Aix en Provence, France (7654): Direction du vent: 08.08.2018 23:00:00 - 14.08.2018 23:00:00 (CEST)Aix en Provence, France (7654): Quantités de précipitations: 08.08.2018 23:00:00 - 14.08.2018 23:00:00 (CEST)
Date & Time tt [°C] td [°C] ff [km/h] ff [knt] fx [km/h] fx [knt] dd rr [mm]
14.08.2018 23:00:00 22,1 13,7 2 1 13 7 SSE 0,0
14.08.2018 22:00:00 23,3 13,5 9 5 24 13 NW 0,0
14.08.2018 21:00:00 24,5 13,4 13 7 35 19 NW 0,0
14.08.2018 20:00:00 25,9 14,0 15 8 37 20 NW -
14.08.2018 19:00:00 27,6 13,2 18 10 42 23 NW 0,0
14.08.2018 18:00:00 27,9 13,8 22 12 48 26 NW 0,0
14.08.2018 17:00:00 28,5 14,0 21 11 44 24 NW 0,0
14.08.2018 16:00:00 28,1 14,0 21 11 48 26 WNW 0,0
14.08.2018 15:00:00 27,7 15,4 21 11 48 26 NW 0,2
14.08.2018 14:00:00 27,0 14,4 18 10 41 22 WNW -
14.08.2018 13:00:00 25,9 14,0 24 13 55 30 WNW 0,0
14.08.2018 12:00:00 25,6 15,6 18 10 46 25 NW 0,0
14.08.2018 11:00:00 24,3 16,3 22 12 48 26 WNW 0,0
14.08.2018 10:00:00 23,1 16,6 21 11 44 24 NW 0,0
14.08.2018 09:00:00 21,7 17,1 8 4 21 11 WNW 0,0
14.08.2018 08:00:00 19,5 16,9 8 4 18 10 W -
14.08.2018 07:00:00 18,7 16,5 8 4 15 8 W 0,0
14.08.2018 06:00:00 18,6 16,7 2 1 11 6 S 0,0
14.08.2018 05:00:00 19,0 17,0 2 1 9 5 NNW 0,0
14.08.2018 04:00:00 19,4 17,9 0 0 11 6 N 0,0
14.08.2018 03:00:00 20,0 18,3 5 3 13 7 WNW 0,0
14.08.2018 02:00:00 20,8 19,3 0 0 8 4 N -
14.08.2018 01:00:00 21,0 19,5 0 0 8 4 N 0,0
14.08.2018 00:00:00 21,6 19,5 2 1 4 2 NNW 0,0
13.08.2018 23:00:00 22,4 20,3 4 2 11 6 W 0,0
13.08.2018 22:00:00 23,1 20,4 0 0 8 4 N 0,0
13.08.2018 21:00:00 23,3 20,2 4 2 22 12 WNW 0,0
13.08.2018 20:00:00 24,4 19,5 9 5 22 12 WSW -
13.08.2018 19:00:00 27,2 16,8 9 5 21 11 SW 0,0
13.08.2018 18:00:00 28,4 15,0 11 6 24 13 SSW 0,0
13.08.2018 17:00:00 28,9 16,5 9 5 26 14 SW 0,0
13.08.2018 16:00:00 28,8 17,3 13 7 24 13 SW 0,0
13.08.2018 15:00:00 29,4 18,8 9 5 24 13 SW 0,0
13.08.2018 14:00:00 28,9 19,5 11 6 22 12 SW -
13.08.2018 13:00:00 27,5 17,1 8 4 22 12 E 0,0
13.08.2018 12:00:00 25,5 16,9 8 4 22 12 E 0,0
13.08.2018 11:00:00 22,4 18,2 8 4 22 12 S 0,0
13.08.2018 10:00:00 19,5 17,3 11 6 24 13 ESE 0,0
13.08.2018 09:00:00 19,0 16,8 9 5 28 15 ENE 0,0
13.08.2018 08:00:00 18,5 17,2 8 4 24 13 ENE -
13.08.2018 07:00:00 17,7 16,9 9 5 50 27 E 19,0
13.08.2018 06:00:00 19,7 17,5 22 12 46 25 WNW 3,0
13.08.2018 05:00:00 22,1 20,0 2 1 22 12 SE 0,0
13.08.2018 04:00:00 22,7 20,4 8 4 18 10 ESE 0,0
13.08.2018 03:00:00 23,6 20,9 4 2 8 4 E 0,0
13.08.2018 02:00:00 23,6 21,1 0 0 9 5 N -
13.08.2018 01:00:00 23,3 21,6 4 2 8 4 E 0,0
13.08.2018 00:00:00 23,8 21,7 2 1 8 4 SE 0,0
12.08.2018 23:00:00 24,0 22,1 4 2 8 4 SSW 0,0
12.08.2018 22:00:00 24,4 22,1 4 2 22 12 SSW 0,0
12.08.2018 21:00:00 24,8 21,5 8 4 18 10 SW 0,0
12.08.2018 20:00:00 26,7 20,5 8 4 22 12 SW -
12.08.2018 19:00:00 29,1 18,5 8 4 26 14 SW 0,0
12.08.2018 18:00:00 29,5 17,0 11 6 28 15 SSW 0,0
12.08.2018 17:00:00 30,8 13,6 13 7 28 15 WSW 0,0
12.08.2018 16:00:00 31,0 12,4 11 6 24 13 SW 0,0
12.08.2018 15:00:00 32,0 11,2 11 6 26 14 SW 0,0
12.08.2018 14:00:00 31,7 12,5 11 6 24 13 SW -
12.08.2018 13:00:00 31,2 12,1 8 4 16 9 W 0,0
12.08.2018 12:00:00 30,7 10,6 4 2 11 6 ESE 0,0
12.08.2018 11:00:00 29,1 10,7 5 3 11 6 E 0,0
12.08.2018 10:00:00 25,7 13,2 5 3 11 6 S 0,0
12.08.2018 09:00:00 23,4 13,3 4 2 8 4 SE 0,0
12.08.2018 08:00:00 18,1 12,3 0 0 8 4 N -
12.08.2018 07:00:00 15,5 12,4 0 0 4 2 N 0,0
12.08.2018 06:00:00 15,6 12,7 0 0 4 2 N 0,0
12.08.2018 05:00:00 16,4 12,7 0 0 8 4 N 0,0
12.08.2018 04:00:00 16,5 12,8 0 0 5 3 N 0,0
12.08.2018 03:00:00 17,0 13,1 0 0 4 2 N 0,0
12.08.2018 02:00:00 17,6 13,3 0 0 4 2 N -
12.08.2018 01:00:00 18,3 12,9 0 0 4 2 N 0,0
12.08.2018 00:00:00 19,4 13,1 0 0 5 3 N 0,0
11.08.2018 23:00:00 20,5 12,7 2 1 4 2 NNE 0,0
11.08.2018 22:00:00 21,9 11,9 0 0 8 4 N 0,0
11.08.2018 21:00:00 25,3 9,2 4 2 16 9 NW 0,0
11.08.2018 20:00:00 28,6 7,8 9 5 18 10 WNW -
11.08.2018 19:00:00 29,9 10,4 8 4 22 12 W 0,0
11.08.2018 18:00:00 29,1 9,2 11 6 29 16 WNW 0,0
11.08.2018 17:00:00 29,8 9,3 15 8 34 18 WNW 0,0
11.08.2018 16:00:00 29,8 8,8 13 7 34 18 WNW 0,0
11.08.2018 15:00:00 29,3 9,9 15 8 29 16 WNW 0,0
11.08.2018 14:00:00 28,8 9,5 15 8 28 15 WNW -
11.08.2018 13:00:00 27,9 10,1 9 5 24 13 WNW 0,2
11.08.2018 12:00:00 27,1 11,6 9 5 22 12 WNW 0,0
11.08.2018 11:00:00 25,5 10,9 8 4 16 9 W 0,0
11.08.2018 10:00:00 23,0 12,9 5 3 11 6 W 0,0
11.08.2018 09:00:00 20,5 13,0 5 3 15 8 WNW 0,0
11.08.2018 08:00:00 17,7 12,4 8 4 16 9 NW -
11.08.2018 07:00:00 15,8 13,1 2 1 4 2 N 0,0
11.08.2018 06:00:00 15,9 13,7 0 0 4 2 N 0,0
11.08.2018 05:00:00 16,3 14,0 0 0 2 1 N 0,0
11.08.2018 04:00:00 16,9 14,2 0 0 5 3 N 0,0
11.08.2018 03:00:00 17,4 13,7 0 0 4 2 N 0,0
11.08.2018 02:00:00 18,1 14,2 0 0 4 2 N -
11.08.2018 01:00:00 18,7 14,0 0 0 4 2 N 0,0
11.08.2018 00:00:00 19,7 14,1 0 0 4 2 N 0,0
10.08.2018 23:00:00 20,5 14,4 2 1 4 2 WSW 0,0
10.08.2018 22:00:00 22,0 14,1 0 0 4 2 N 0,0
10.08.2018 21:00:00 25,0 12,2 4 2 13 7 NNW 0,0
10.08.2018 20:00:00 27,7 10,8 8 4 24 13 WNW -
10.08.2018 19:00:00 28,8 10,5 13 7 28 15 WNW 0,0
10.08.2018 18:00:00 29,4 10,0 11 6 29 16 WNW 0,0
10.08.2018 17:00:00 30,1 10,6 13 7 29 16 NW 0,0
10.08.2018 16:00:00 30,3 11,3 13 7 28 15 W 0,0
10.08.2018 15:00:00 29,9 12,3 8 4 22 12 NNW 0,0
10.08.2018 14:00:00 29,3 10,9 9 5 22 12 NW -
10.08.2018 13:00:00 28,4 12,7 9 5 24 13 NNW 0,0
10.08.2018 12:00:00 26,5 16,1 8 4 15 8 NNW 0,0
10.08.2018 11:00:00 24,7 18,6 4 2 9 5 SW 0,0
10.08.2018 10:00:00 22,2 18,6 4 2 15 8 NW 0,2
10.08.2018 09:00:00 21,2 18,2 4 2 11 6 NE 0,0
10.08.2018 08:00:00 18,5 17,7 2 1 8 4 N -
10.08.2018 07:00:00 18,3 17,7 2 1 8 4 NNW 0,0
10.08.2018 06:00:00 18,3 17,7 4 2 5 3 WNW 0,0
10.08.2018 05:00:00 18,3 17,5 0 0 5 3 N 0,0
10.08.2018 04:00:00 18,7 17,7 4 2 9 5 N 0,0
10.08.2018 03:00:00 19,5 18,0 0 0 13 7 N 0,0
10.08.2018 02:00:00 20,3 19,1 2 1 8 4 NNW -
10.08.2018 01:00:00 20,4 19,2 0 0 9 5 N 0,0
10.08.2018 00:00:00 20,1 19,1 0 0 11 6 N 0,0
09.08.2018 23:00:00 20,2 19,4 0 0 8 4 N 0,0
09.08.2018 22:00:00 20,2 19,4 0 0 24 13 N 0,0
09.08.2018 21:00:00 20,4 19,2 13 7 34 18 ENE 2,0
09.08.2018 20:00:00 20,9 19,4 5 3 21 11 SE -
09.08.2018 19:00:00 20,6 18,9 9 5 22 12 ENE 0,2
09.08.2018 18:00:00 20,6 18,9 8 4 24 13 ESE 0,2
09.08.2018 17:00:00 21,0 19,8 9 5 18 10 E 1,0
09.08.2018 16:00:00 21,1 19,9 8 4 41 22 NNW 12,0
09.08.2018 15:00:00 22,8 19,2 15 8 29 16 ESE 0,0
09.08.2018 14:00:00 22,4 19,8 11 6 34 18 E -
09.08.2018 13:00:00 20,9 20,1 9 5 31 17 ENE 25,0
09.08.2018 12:00:00 21,5 20,3 9 5 37 20 WNW 30,0
09.08.2018 11:00:00 24,6 21,9 13 7 28 15 SSE 3,0
09.08.2018 10:00:00 27,0 20,8 8 4 16 9 SSE 0,0
09.08.2018 09:00:00 25,3 20,3 8 4 21 11 SE 0,0
09.08.2018 08:00:00 24,1 19,8 8 4 22 12 ESE -
09.08.2018 07:00:00 22,9 19,3 9 5 22 12 ESE 0,0
09.08.2018 06:00:00 22,7 19,5 8 4 15 8 E 0,0
09.08.2018 05:00:00 22,8 19,4 4 2 8 4 SSE 0,0
09.08.2018 04:00:00 23,4 20,1 8 4 15 8 E 0,0
09.08.2018 03:00:00 24,1 20,4 4 2 8 4 ESE 0,0
09.08.2018 02:00:00 24,4 20,7 5 3 11 6 ENE -
09.08.2018 01:00:00 24,0 20,5 0 0 9 5 N 0,0
09.08.2018 00:00:00 25,4 21,1 0 0 11 6 N 0,0
08.08.2018 23:00:00 25,7 20,9 4 2 8 4 SSE 0,0

tt = Température de l'air
td = dewpoint
ff = Vitesse du vent
fx = gusts
dd = Direction du vent
rr = Quantités de précipitations

stations d'obs. à proximité